sensor_id;sensor_type;location;lat;lon;timestamp;P1;durP1;ratioP1;P2;durP2;ratioP2
30824;SDS011;17550;45.486;12.222;2023-02-17T00:00:32;249.57;;;120.97;;
30824;SDS011;17550;45.486;12.222;2023-02-17T00:02:58;258.23;;;124.97;;
30824;SDS011;17550;45.486;12.222;2023-02-17T00:05:24;261.10;;;123.28;;
30824;SDS011;17550;45.486;12.222;2023-02-17T00:07:51;261.05;;;127.00;;
30824;SDS011;17550;45.486;12.222;2023-02-17T00:10:16;259.52;;;124.07;;
30824;SDS011;17550;45.486;12.222;2023-02-17T00:12:42;260.38;;;125.32;;
30824;SDS011;17550;45.486;12.222;2023-02-17T00:15:08;243.18;;;120.85;;
30824;SDS011;17550;45.486;12.222;2023-02-17T00:17:34;249.98;;;122.38;;
30824;SDS011;17550;45.486;12.222;2023-02-17T00:20:00;243.55;;;122.28;;
30824;SDS011;17550;45.486;12.222;2023-02-17T00:22:25;253.57;;;119.90;;
30824;SDS011;17550;45.486;12.222;2023-02-17T00:24:51;267.45;;;122.95;;
30824;SDS011;17550;45.486;12.222;2023-02-17T00:27:17;239.20;;;120.43;;
30824;SDS011;17550;45.486;12.222;2023-02-17T00:29:43;256.10;;;121.53;;
30824;SDS011;17550;45.486;12.222;2023-02-17T00:32:09;233.98;;;116.53;;
30824;SDS011;17550;45.486;12.222;2023-02-17T00:34:35;255.55;;;122.82;;
30824;SDS011;17550;45.486;12.222;2023-02-17T00:37:01;246.70;;;122.00;;
30824;SDS011;17550;45.486;12.222;2023-02-17T00:39:27;243.38;;;121.65;;
30824;SDS011;17550;45.486;12.222;2023-02-17T00:41:53;247.13;;;119.68;;
30824;SDS011;17550;45.486;12.222;2023-02-17T00:44:21;238.63;;;118.85;;
30824;SDS011;17550;45.486;12.222;2023-02-17T00:46:48;236.35;;;119.78;;
30824;SDS011;17550;45.486;12.222;2023-02-17T00:49:15;240.35;;;118.28;;
30824;SDS011;17550;45.486;12.222;2023-02-17T00:51:46;229.43;;;116.97;;
30824;SDS011;17550;45.486;12.222;2023-02-17T00:54:12;229.63;;;115.70;;
30824;SDS011;17550;45.486;12.222;2023-02-17T00:56:38;253.65;;;122.28;;
30824;SDS011;17550;45.486;12.222;2023-02-17T00:59:05;232.98;;;116.07;;
30824;SDS011;17550;45.486;12.222;2023-02-17T01:01:31;225.32;;;116.85;;
30824;SDS011;17550;45.486;12.222;2023-02-17T01:03:57;238.63;;;119.43;;
30824;SDS011;17550;45.486;12.222;2023-02-17T01:06:24;222.38;;;114.53;;
30824;SDS011;17550;45.486;12.222;2023-02-17T01:08:55;169.18;;;87.13;;
30824;SDS011;17550;45.486;12.222;2023-02-17T01:11:23;220.95;;;113.32;;
30824;SDS011;17550;45.486;12.222;2023-02-17T01:13:50;219.77;;;113.45;;
30824;SDS011;17550;45.486;12.222;2023-02-17T01:16:17;211.88;;;111.00;;
30824;SDS011;17550;45.486;12.222;2023-02-17T01:18:45;247.68;;;119.63;;
30824;SDS011;17550;45.486;12.222;2023-02-17T01:21:17;222.02;;;112.90;;
30824;SDS011;17550;45.486;12.222;2023-02-17T01:23:49;217.00;;;112.18;;
30824;SDS011;17550;45.486;12.222;2023-02-17T01:26:16;216.43;;;114.68;;
30824;SDS011;17550;45.486;12.222;2023-02-17T01:28:43;199.35;;;107.70;;
30824;SDS011;17550;45.486;12.222;2023-02-17T01:31:10;195.13;;;107.53;;
30824;SDS011;17550;45.486;12.222;2023-02-17T01:33:37;203.40;;;104.05;;
30824;SDS011;17550;45.486;12.222;2023-02-17T01:36:04;186.02;;;101.22;;
30824;SDS011;17550;45.486;12.222;2023-02-17T01:38:31;180.23;;;100.32;;
30824;SDS011;17550;45.486;12.222;2023-02-17T01:40:57;187.95;;;103.47;;
30824;SDS011;17550;45.486;12.222;2023-02-17T01:43:23;192.18;;;101.97;;
30824;SDS011;17550;45.486;12.222;2023-02-17T01:45:58;191.20;;;103.35;;
30824;SDS011;17550;45.486;12.222;2023-02-17T01:56:11;172.55;;;97.88;;
30824;SDS011;17550;45.486;12.222;2023-02-17T01:58:40;176.50;;;98.03;;
30824;SDS011;17550;45.486;12.222;2023-02-17T02:01:08;178.93;;;100.30;;
30824;SDS011;17550;45.486;12.222;2023-02-17T02:03:35;174.27;;;96.65;;
30824;SDS011;17550;45.486;12.222;2023-02-17T02:06:02;173.98;;;97.40;;
30824;SDS011;17550;45.486;12.222;2023-02-17T02:08:37;170.32;;;95.88;;
30824;SDS011;17550;45.486;12.222;2023-02-17T02:11:23;179.18;;;98.13;;
30824;SDS011;17550;45.486;12.222;2023-02-17T02:13:49;176.65;;;97.60;;
30824;SDS011;17550;45.486;12.222;2023-02-17T02:30:01;167.18;;;94.72;;
30824;SDS011;17550;45.486;12.222;2023-02-17T02:32:45;176.13;;;96.35;;
30824;SDS011;17550;45.486;12.222;2023-02-17T02:38:34;169.13;;;93.40;;
30824;SDS011;17550;45.486;12.222;2023-02-17T02:41:07;167.52;;;94.10;;
30824;SDS011;17550;45.486;12.222;2023-02-17T02:46:03;161.75;;;92.07;;
30824;SDS011;17550;45.486;12.222;2023-02-17T02:48:29;148.18;;;87.10;;
30824;SDS011;17550;45.486;12.222;2023-02-17T02:51:00;151.15;;;89.13;;
30824;SDS011;17550;45.486;12.222;2023-02-17T02:53:49;147.65;;;87.07;;
30824;SDS011;17550;45.486;12.222;2023-02-17T02:56:28;145.38;;;84.57;;
30824;SDS011;17550;45.486;12.222;2023-02-17T03:01:44;144.82;;;84.60;;
30824;SDS011;17550;45.486;12.222;2023-02-17T03:09:51;142.88;;;81.90;;
30824;SDS011;17550;45.486;12.222;2023-02-17T03:12:18;150.15;;;88.00;;
30824;SDS011;17550;45.486;12.222;2023-02-17T03:14:45;157.25;;;88.20;;
30824;SDS011;17550;45.486;12.222;2023-02-17T03:17:14;150.80;;;87.43;;
30824;SDS011;17550;45.486;12.222;2023-02-17T03:19:40;143.98;;;83.93;;
30824;SDS011;17550;45.486;12.222;2023-02-17T03:22:08;144.45;;;82.05;;
30824;SDS011;17550;45.486;12.222;2023-02-17T03:24:39;140.23;;;79.65;;
30824;SDS011;17550;45.486;12.222;2023-02-17T03:27:05;142.07;;;83.35;;
30824;SDS011;17550;45.486;12.222;2023-02-17T03:29:31;133.88;;;79.82;;
30824;SDS011;17550;45.486;12.222;2023-02-17T03:31:56;140.30;;;82.03;;
30824;SDS011;17550;45.486;12.222;2023-02-17T03:34:22;138.27;;;79.47;;
30824;SDS011;17550;45.486;12.222;2023-02-17T03:36:48;131.95;;;78.70;;
30824;SDS011;17550;45.486;12.222;2023-02-17T03:39:13;134.25;;;78.72;;
30824;SDS011;17550;45.486;12.222;2023-02-17T03:41:39;137.57;;;80.57;;
30824;SDS011;17550;45.486;12.222;2023-02-17T03:44:04;135.65;;;79.97;;
30824;SDS011;17550;45.486;12.222;2023-02-17T03:46:31;137.82;;;81.72;;
30824;SDS011;17550;45.486;12.222;2023-02-17T03:48:56;138.20;;;79.80;;
30824;SDS011;17550;45.486;12.222;2023-02-17T03:51:22;136.35;;;78.88;;
30824;SDS011;17550;45.486;12.222;2023-02-17T03:53:49;139.02;;;82.15;;
30824;SDS011;17550;45.486;12.222;2023-02-17T03:56:15;140.63;;;80.82;;
30824;SDS011;17550;45.486;12.222;2023-02-17T03:58:41;136.35;;;80.97;;
30824;SDS011;17550;45.486;12.222;2023-02-17T04:01:08;139.98;;;82.00;;
30824;SDS011;17550;45.486;12.222;2023-02-17T04:03:35;142.65;;;81.70;;
30824;SDS011;17550;45.486;12.222;2023-02-17T04:06:01;139.13;;;82.55;;
30824;SDS011;17550;45.486;12.222;2023-02-17T04:08:27;142.18;;;83.00;;
30824;SDS011;17550;45.486;12.222;2023-02-17T04:10:53;136.98;;;80.35;;
30824;SDS011;17550;45.486;12.222;2023-02-17T04:13:21;144.38;;;83.85;;
30824;SDS011;17550;45.486;12.222;2023-02-17T04:15:47;137.93;;;82.70;;
30824;SDS011;17550;45.486;12.222;2023-02-17T04:18:13;146.40;;;83.18;;
30824;SDS011;17550;45.486;12.222;2023-02-17T04:20:39;140.70;;;82.63;;
30824;SDS011;17550;45.486;12.222;2023-02-17T04:23:05;139.65;;;80.45;;
30824;SDS011;17550;45.486;12.222;2023-02-17T04:25:34;149.90;;;84.25;;
30824;SDS011;17550;45.486;12.222;2023-02-17T04:28:02;146.75;;;82.40;;
30824;SDS011;17550;45.486;12.222;2023-02-17T04:30:28;140.48;;;81.75;;
30824;SDS011;17550;45.486;12.222;2023-02-17T04:32:54;140.68;;;80.95;;
30824;SDS011;17550;45.486;12.222;2023-02-17T04:35:20;143.63;;;82.32;;
30824;SDS011;17550;45.486;12.222;2023-02-17T04:37:46;153.98;;;84.32;;
30824;SDS011;17550;45.486;12.222;2023-02-17T04:40:12;145.85;;;84.70;;
30824;SDS011;17550;45.486;12.222;2023-02-17T04:42:38;142.45;;;82.63;;
30824;SDS011;17550;45.486;12.222;2023-02-17T04:45:04;142.25;;;82.15;;
30824;SDS011;17550;45.486;12.222;2023-02-17T04:47:30;151.40;;;85.97;;
30824;SDS011;17550;45.486;12.222;2023-02-17T04:49:56;145.48;;;85.60;;
30824;SDS011;17550;45.486;12.222;2023-02-17T04:52:22;150.00;;;85.00;;
30824;SDS011;17550;45.486;12.222;2023-02-17T04:54:48;143.43;;;80.07;;
30824;SDS011;17550;45.486;12.222;2023-02-17T04:57:13;142.45;;;82.13;;
30824;SDS011;17550;45.486;12.222;2023-02-17T04:59:39;146.95;;;84.05;;
30824;SDS011;17550;45.486;12.222;2023-02-17T05:02:05;144.75;;;84.20;;
30824;SDS011;17550;45.486;12.222;2023-02-17T05:04:30;136.65;;;80.00;;
30824;SDS011;17550;45.486;12.222;2023-02-17T05:06:56;148.80;;;84.40;;
30824;SDS011;17550;45.486;12.222;2023-02-17T05:09:22;147.70;;;85.45;;
30824;SDS011;17550;45.486;12.222;2023-02-17T05:11:48;137.23;;;81.78;;
30824;SDS011;17550;45.486;12.222;2023-02-17T05:14:13;123.65;;;76.82;;
30824;SDS011;17550;45.486;12.222;2023-02-17T05:16:39;121.25;;;73.45;;
30824;SDS011;17550;45.486;12.222;2023-02-17T05:19:05;130.85;;;77.57;;
30824;SDS011;17550;45.486;12.222;2023-02-17T05:21:30;133.85;;;77.30;;
30824;SDS011;17550;45.486;12.222;2023-02-17T05:23:56;126.53;;;74.72;;
30824;SDS011;17550;45.486;12.222;2023-02-17T05:26:22;131.95;;;78.07;;
30824;SDS011;17550;45.486;12.222;2023-02-17T05:28:48;127.45;;;74.15;;
30824;SDS011;17550;45.486;12.222;2023-02-17T05:31:14;129.30;;;77.35;;
30824;SDS011;17550;45.486;12.222;2023-02-17T05:33:40;132.98;;;78.50;;
30824;SDS011;17550;45.486;12.222;2023-02-17T05:36:06;130.32;;;77.07;;
30824;SDS011;17550;45.486;12.222;2023-02-17T05:38:33;124.75;;;74.72;;
30824;SDS011;17550;45.486;12.222;2023-02-17T05:41:00;126.60;;;75.30;;
30824;SDS011;17550;45.486;12.222;2023-02-17T05:43:26;133.95;;;76.93;;
30824;SDS011;17550;45.486;12.222;2023-02-17T05:45:51;127.70;;;76.50;;
30824;SDS011;17550;45.486;12.222;2023-02-17T05:48:17;121.43;;;73.22;;
30824;SDS011;17550;45.486;12.222;2023-02-17T05:50:43;136.63;;;79.47;;
30824;SDS011;17550;45.486;12.222;2023-02-17T05:53:09;125.20;;;74.97;;
30824;SDS011;17550;45.486;12.222;2023-02-17T05:55:35;123.95;;;73.65;;
30824;SDS011;17550;45.486;12.222;2023-02-17T05:58:01;126.97;;;75.22;;
30824;SDS011;17550;45.486;12.222;2023-02-17T06:00:27;130.60;;;75.15;;
30824;SDS011;17550;45.486;12.222;2023-02-17T06:02:53;127.60;;;77.63;;
30824;SDS011;17550;45.486;12.222;2023-02-17T06:05:18;131.88;;;75.90;;
30824;SDS011;17550;45.486;12.222;2023-02-17T06:07:44;124.05;;;73.43;;
30824;SDS011;17550;45.486;12.222;2023-02-17T06:10:10;129.30;;;76.53;;
30824;SDS011;17550;45.486;12.222;2023-02-17T06:12:36;125.78;;;74.97;;
30824;SDS011;17550;45.486;12.222;2023-02-17T06:15:02;128.15;;;76.40;;
30824;SDS011;17550;45.486;12.222;2023-02-17T06:17:27;128.82;;;75.75;;
30824;SDS011;17550;45.486;12.222;2023-02-17T06:19:54;134.25;;;76.43;;
30824;SDS011;17550;45.486;12.222;2023-02-17T06:22:19;132.10;;;75.68;;
30824;SDS011;17550;45.486;12.222;2023-02-17T06:24:45;132.05;;;74.63;;
30824;SDS011;17550;45.486;12.222;2023-02-17T06:27:11;128.57;;;76.90;;
30824;SDS011;17550;45.486;12.222;2023-02-17T06:29:36;136.27;;;79.07;;
30824;SDS011;17550;45.486;12.222;2023-02-17T06:32:02;131.88;;;74.53;;
30824;SDS011;17550;45.486;12.222;2023-02-17T06:34:28;132.88;;;78.03;;
30824;SDS011;17550;45.486;12.222;2023-02-17T06:36:53;117.22;;;72.55;;
30824;SDS011;17550;45.486;12.222;2023-02-17T06:39:19;135.60;;;76.32;;
30824;SDS011;17550;45.486;12.222;2023-02-17T06:41:45;124.03;;;72.50;;
30824;SDS011;17550;45.486;12.222;2023-02-17T06:44:11;123.70;;;72.68;;
30824;SDS011;17550;45.486;12.222;2023-02-17T06:46:37;119.47;;;71.50;;
30824;SDS011;17550;45.486;12.222;2023-02-17T06:49:03;115.65;;;69.55;;
30824;SDS011;17550;45.486;12.222;2023-02-17T06:51:28;121.00;;;71.78;;
30824;SDS011;17550;45.486;12.222;2023-02-17T06:53:54;117.85;;;72.47;;
30824;SDS011;17550;45.486;12.222;2023-02-17T06:56:20;121.82;;;73.28;;
30824;SDS011;17550;45.486;12.222;2023-02-17T06:58:46;114.00;;;69.32;;
30824;SDS011;17550;45.486;12.222;2023-02-17T07:01:16;115.55;;;68.85;;
30824;SDS011;17550;45.486;12.222;2023-02-17T07:03:44;114.78;;;70.90;;
30824;SDS011;17550;45.486;12.222;2023-02-17T07:06:10;112.68;;;66.97;;
30824;SDS011;17550;45.486;12.222;2023-02-17T07:08:35;111.95;;;68.18;;
30824;SDS011;17550;45.486;12.222;2023-02-17T07:11:07;117.47;;;71.22;;
30824;SDS011;17550;45.486;12.222;2023-02-17T07:13:34;121.30;;;71.50;;
30824;SDS011;17550;45.486;12.222;2023-02-17T07:16:00;127.35;;;74.60;;
30824;SDS011;17550;45.486;12.222;2023-02-17T07:18:26;119.40;;;71.60;;
30824;SDS011;17550;45.486;12.222;2023-02-17T07:20:52;116.20;;;71.20;;
30824;SDS011;17550;45.486;12.222;2023-02-17T07:23:18;120.05;;;73.95;;
30824;SDS011;17550;45.486;12.222;2023-02-17T07:25:43;120.60;;;71.75;;
30824;SDS011;17550;45.486;12.222;2023-02-17T07:28:09;117.43;;;68.93;;
30824;SDS011;17550;45.486;12.222;2023-02-17T07:30:38;116.68;;;66.88;;
30824;SDS011;17550;45.486;12.222;2023-02-17T07:33:05;114.65;;;68.97;;
30824;SDS011;17550;45.486;12.222;2023-02-17T07:35:31;117.25;;;72.65;;
30824;SDS011;17550;45.486;12.222;2023-02-17T07:37:58;114.30;;;68.93;;
30824;SDS011;17550;45.486;12.222;2023-02-17T07:40:25;110.53;;;67.15;;
30824;SDS011;17550;45.486;12.222;2023-02-17T07:42:51;113.10;;;68.22;;
30824;SDS011;17550;45.486;12.222;2023-02-17T07:45:18;116.35;;;69.47;;
30824;SDS011;17550;45.486;12.222;2023-02-17T07:47:44;106.70;;;66.20;;
30824;SDS011;17550;45.486;12.222;2023-02-17T07:50:10;109.97;;;67.03;;
30824;SDS011;17550;45.486;12.222;2023-02-17T07:52:36;111.55;;;66.95;;
30824;SDS011;17550;45.486;12.222;2023-02-17T07:55:02;117.57;;;70.07;;
30824;SDS011;17550;45.486;12.222;2023-02-17T07:57:28;119.60;;;74.07;;
30824;SDS011;17550;45.486;12.222;2023-02-17T07:59:54;121.20;;;71.57;;
30824;SDS011;17550;45.486;12.222;2023-02-17T08:02:20;128.45;;;75.15;;
30824;SDS011;17550;45.486;12.222;2023-02-17T08:04:46;120.55;;;73.60;;
30824;SDS011;17550;45.486;12.222;2023-02-17T08:07:12;119.32;;;71.95;;
30824;SDS011;17550;45.486;12.222;2023-02-17T08:09:37;126.75;;;74.47;;
30824;SDS011;17550;45.486;12.222;2023-02-17T08:12:22;125.13;;;72.60;;
30824;SDS011;17550;45.486;12.222;2023-02-17T08:15:07;127.55;;;75.18;;
30824;SDS011;17550;45.486;12.222;2023-02-17T08:17:35;127.05;;;74.88;;
30824;SDS011;17550;45.486;12.222;2023-02-17T08:20:02;118.90;;;75.05;;
30824;SDS011;17550;45.486;12.222;2023-02-17T08:22:28;125.53;;;75.15;;
30824;SDS011;17550;45.486;12.222;2023-02-17T08:24:54;131.80;;;78.45;;
30824;SDS011;17550;45.486;12.222;2023-02-17T08:27:20;131.25;;;79.40;;
30824;SDS011;17550;45.486;12.222;2023-02-17T08:29:46;133.25;;;78.53;;
30824;SDS011;17550;45.486;12.222;2023-02-17T08:32:12;143.32;;;82.05;;
30824;SDS011;17550;45.486;12.222;2023-02-17T08:34:38;137.00;;;81.55;;
30824;SDS011;17550;45.486;12.222;2023-02-17T08:37:04;144.18;;;84.78;;
30824;SDS011;17550;45.486;12.222;2023-02-17T08:39:31;138.27;;;83.10;;
30824;SDS011;17550;45.486;12.222;2023-02-17T08:41:58;135.77;;;81.85;;
30824;SDS011;17550;45.486;12.222;2023-02-17T08:44:23;137.35;;;81.35;;
30824;SDS011;17550;45.486;12.222;2023-02-17T08:46:50;133.10;;;80.65;;
30824;SDS011;17550;45.486;12.222;2023-02-17T08:49:20;138.45;;;80.18;;
30824;SDS011;17550;45.486;12.222;2023-02-17T08:51:49;143.65;;;83.00;;
30824;SDS011;17550;45.486;12.222;2023-02-17T08:54:16;152.68;;;87.10;;
30824;SDS011;17550;45.486;12.222;2023-02-17T08:56:42;156.98;;;89.65;;
30824;SDS011;17550;45.486;12.222;2023-02-17T08:59:08;170.55;;;95.15;;
30824;SDS011;17550;45.486;12.222;2023-02-17T09:01:35;171.18;;;97.47;;
30824;SDS011;17550;45.486;12.222;2023-02-17T09:04:02;160.50;;;93.80;;
30824;SDS011;17550;45.486;12.222;2023-02-17T09:06:33;158.48;;;91.60;;
30824;SDS011;17550;45.486;12.222;2023-02-17T09:09:01;144.73;;;87.32;;
30824;SDS011;17550;45.486;12.222;2023-02-17T09:11:27;136.70;;;85.80;;
30824;SDS011;17550;45.486;12.222;2023-02-17T09:13:53;147.20;;;85.50;;
30824;SDS011;17550;45.486;12.222;2023-02-17T09:16:19;155.45;;;91.20;;
30824;SDS011;17550;45.486;12.222;2023-02-17T09:18:48;157.93;;;91.78;;
30824;SDS011;17550;45.486;12.222;2023-02-17T09:21:14;160.88;;;92.93;;
30824;SDS011;17550;45.486;12.222;2023-02-17T09:23:40;158.10;;;92.00;;
30824;SDS011;17550;45.486;12.222;2023-02-17T09:26:07;156.98;;;93.15;;
30824;SDS011;17550;45.486;12.222;2023-02-17T09:28:35;162.13;;;96.43;;
30824;SDS011;17550;45.486;12.222;2023-02-17T09:31:11;163.25;;;95.93;;
30824;SDS011;17550;45.486;12.222;2023-02-17T09:33:38;168.63;;;95.60;;
30824;SDS011;17550;45.486;12.222;2023-02-17T09:36:05;163.68;;;94.35;;
30824;SDS011;17550;45.486;12.222;2023-02-17T09:38:32;159.18;;;92.65;;
30824;SDS011;17550;45.486;12.222;2023-02-17T09:41:03;179.55;;;99.28;;
30824;SDS011;17550;45.486;12.222;2023-02-17T09:43:40;169.07;;;99.40;;
30824;SDS011;17550;45.486;12.222;2023-02-17T09:46:14;168.30;;;99.47;;
30824;SDS011;17550;45.486;12.222;2023-02-17T09:48:45;169.05;;;99.32;;
30824;SDS011;17550;45.486;12.222;2023-02-17T09:51:18;172.57;;;101.15;;
30824;SDS011;17550;45.486;12.222;2023-02-17T09:56:44;178.68;;;100.57;;
30824;SDS011;17550;45.486;12.222;2023-02-17T09:59:21;173.10;;;100.03;;
30824;SDS011;17550;45.486;12.222;2023-02-17T10:01:51;185.70;;;102.50;;
30824;SDS011;17550;45.486;12.222;2023-02-17T10:04:26;188.88;;;106.60;;
30824;SDS011;17550;45.486;12.222;2023-02-17T10:07:00;175.15;;;101.57;;
30824;SDS011;17550;45.486;12.222;2023-02-17T10:09:32;187.05;;;101.03;;
30824;SDS011;17550;45.486;12.222;2023-02-17T10:12:37;177.60;;;101.75;;
30824;SDS011;17550;45.486;12.222;2023-02-17T10:15:08;168.95;;;99.30;;
30824;SDS011;17550;45.486;12.222;2023-02-17T10:18:45;176.93;;;102.72;;
30824;SDS011;17550;45.486;12.222;2023-02-17T10:23:54;186.65;;;106.82;;
30824;SDS011;17550;45.486;12.222;2023-02-17T10:26:25;193.18;;;109.50;;
30824;SDS011;17550;45.486;12.222;2023-02-17T10:32:14;186.73;;;104.32;;
30824;SDS011;17550;45.486;12.222;2023-02-17T10:37:46;197.80;;;115.85;;
30824;SDS011;17550;45.486;12.222;2023-02-17T10:40:33;181.93;;;108.00;;
30824;SDS011;17550;45.486;12.222;2023-02-17T10:43:02;199.75;;;109.95;;
30824;SDS011;17550;45.486;12.222;2023-02-17T10:45:36;181.50;;;104.40;;
30824;SDS011;17550;45.486;12.222;2023-02-17T10:48:13;197.35;;;109.65;;
30824;SDS011;17550;45.486;12.222;2023-02-17T10:50:42;193.40;;;109.28;;
30824;SDS011;17550;45.486;12.222;2023-02-17T10:53:11;189.80;;;107.40;;
30824;SDS011;17550;45.486;12.222;2023-02-17T10:55:40;181.77;;;104.55;;
30824;SDS011;17550;45.486;12.222;2023-02-17T11:01:01;178.40;;;105.18;;
30824;SDS011;17550;45.486;12.222;2023-02-17T11:03:29;184.05;;;106.40;;
30824;SDS011;17550;45.486;12.222;2023-02-17T11:06:00;173.23;;;103.65;;
30824;SDS011;17550;45.486;12.222;2023-02-17T11:08:36;183.50;;;106.00;;
30824;SDS011;17550;45.486;12.222;2023-02-17T11:11:27;192.50;;;108.53;;
30824;SDS011;17550;45.486;12.222;2023-02-17T11:16:40;174.67;;;104.67;;
30824;SDS011;17550;45.486;12.222;2023-02-17T11:19:22;187.05;;;107.47;;
30824;SDS011;17550;45.486;12.222;2023-02-17T11:21:54;179.82;;;104.45;;
30824;SDS011;17550;45.486;12.222;2023-02-17T11:24:21;178.05;;;103.95;;
30824;SDS011;17550;45.486;12.222;2023-02-17T11:27:21;182.45;;;107.07;;
30824;SDS011;17550;45.486;12.222;2023-02-17T11:29:47;191.13;;;108.75;;
30824;SDS011;17550;45.486;12.222;2023-02-17T11:32:13;195.82;;;109.43;;
30824;SDS011;17550;45.486;12.222;2023-02-17T11:34:40;183.13;;;109.07;;
30824;SDS011;17550;45.486;12.222;2023-02-17T11:39:37;191.02;;;109.93;;
30824;SDS011;17550;45.486;12.222;2023-02-17T11:44:48;193.75;;;107.13;;
30824;SDS011;17550;45.486;12.222;2023-02-17T11:50:03;201.02;;;109.57;;
30824;SDS011;17550;45.486;12.222;2023-02-17T11:52:56;193.23;;;107.57;;
30824;SDS011;17550;45.486;12.222;2023-02-17T11:58:43;179.80;;;104.38;;
30824;SDS011;17550;45.486;12.222;2023-02-17T12:05:04;178.73;;;105.55;;
30824;SDS011;17550;45.486;12.222;2023-02-17T12:10:42;199.80;;;110.68;;
30824;SDS011;17550;45.486;12.222;2023-02-17T12:13:35;198.48;;;118.28;;
30824;SDS011;17550;45.486;12.222;2023-02-17T12:16:34;190.75;;;112.68;;
30824;SDS011;17550;45.486;12.222;2023-02-17T12:19:27;195.85;;;115.28;;
30824;SDS011;17550;45.486;12.222;2023-02-17T12:34:25;195.15;;;114.10;;
30824;SDS011;17550;45.486;12.222;2023-02-17T12:37:04;196.48;;;112.18;;
30824;SDS011;17550;45.486;12.222;2023-02-17T12:42:15;199.85;;;114.60;;
30824;SDS011;17550;45.486;12.222;2023-02-17T12:44:58;190.88;;;110.70;;
30824;SDS011;17550;45.486;12.222;2023-02-17T12:47:34;193.38;;;112.38;;
30824;SDS011;17550;45.486;12.222;2023-02-17T12:52:47;202.57;;;116.47;;
30824;SDS011;17550;45.486;12.222;2023-02-17T12:55:21;198.45;;;114.05;;
30824;SDS011;17550;45.486;12.222;2023-02-17T13:03:06;191.85;;;111.47;;
30824;SDS011;17550;45.486;12.222;2023-02-17T13:10:57;193.65;;;111.75;;
30824;SDS011;17550;45.486;12.222;2023-02-17T13:13:29;200.55;;;113.13;;
30824;SDS011;17550;45.486;12.222;2023-02-17T13:16:12;200.23;;;112.88;;
30824;SDS011;17550;45.486;12.222;2023-02-17T13:18:41;199.98;;;115.68;;
30824;SDS011;17550;45.486;12.222;2023-02-17T13:23:58;198.07;;;112.90;;
30824;SDS011;17550;45.486;12.222;2023-02-17T13:29:06;195.00;;;111.97;;
30824;SDS011;17550;45.486;12.222;2023-02-17T13:31:42;202.13;;;113.00;;
30824;SDS011;17550;45.486;12.222;2023-02-17T13:34:10;194.50;;;112.05;;
30824;SDS011;17550;45.486;12.222;2023-02-17T13:36:47;200.48;;;112.40;;
30824;SDS011;17550;45.486;12.222;2023-02-17T13:41:54;197.35;;;113.35;;
30824;SDS011;17550;45.486;12.222;2023-02-17T13:44:28;192.15;;;110.55;;
30824;SDS011;17550;45.486;12.222;2023-02-17T13:47:01;203.30;;;113.10;;
30824;SDS011;17550;45.486;12.222;2023-02-17T13:49:31;205.90;;;116.22;;
30824;SDS011;17550;45.486;12.222;2023-02-17T13:52:18;210.25;;;117.07;;
30824;SDS011;17550;45.486;12.222;2023-02-17T13:54:59;214.30;;;117.47;;
30824;SDS011;17550;45.486;12.222;2023-02-17T13:57:34;206.82;;;115.10;;
30824;SDS011;17550;45.486;12.222;2023-02-17T14:03:01;202.65;;;113.63;;
30824;SDS011;17550;45.486;12.222;2023-02-17T14:05:47;205.38;;;116.88;;
30824;SDS011;17550;45.486;12.222;2023-02-17T14:08:29;215.88;;;119.07;;
30824;SDS011;17550;45.486;12.222;2023-02-17T14:11:08;214.52;;;121.38;;
30824;SDS011;17550;45.486;12.222;2023-02-17T14:13:38;221.52;;;124.15;;
30824;SDS011;17550;45.486;12.222;2023-02-17T14:16:06;210.55;;;120.07;;
30824;SDS011;17550;45.486;12.222;2023-02-17T14:21:06;211.80;;;120.15;;
30824;SDS011;17550;45.486;12.222;2023-02-17T14:23:39;226.15;;;126.63;;
30824;SDS011;17550;45.486;12.222;2023-02-17T14:26:11;222.52;;;124.30;;
30824;SDS011;17550;45.486;12.222;2023-02-17T14:28:54;220.05;;;124.38;;
30824;SDS011;17550;45.486;12.222;2023-02-17T14:31:22;224.87;;;124.30;;
30824;SDS011;17550;45.486;12.222;2023-02-17T14:33:59;221.23;;;122.85;;
30824;SDS011;17550;45.486;12.222;2023-02-17T14:36:28;240.00;;;131.48;;
30824;SDS011;17550;45.486;12.222;2023-02-17T14:38:59;242.90;;;130.73;;
30824;SDS011;17550;45.486;12.222;2023-02-17T14:41:25;227.95;;;129.10;;
30824;SDS011;17550;45.486;12.222;2023-02-17T14:43:52;234.40;;;129.68;;
30824;SDS011;17550;45.486;12.222;2023-02-17T14:46:17;227.38;;;127.45;;
30824;SDS011;17550;45.486;12.222;2023-02-17T14:48:50;233.07;;;129.00;;
30824;SDS011;17550;45.486;12.222;2023-02-17T14:51:17;244.75;;;130.20;;
30824;SDS011;17550;45.486;12.222;2023-02-17T14:53:44;239.57;;;133.32;;
30824;SDS011;17550;45.486;12.222;2023-02-17T14:58:39;249.30;;;134.50;;
30824;SDS011;17550;45.486;12.222;2023-02-17T15:01:05;268.13;;;142.25;;
30824;SDS011;17550;45.486;12.222;2023-02-17T15:03:31;256.00;;;141.48;;
30824;SDS011;17550;45.486;12.222;2023-02-17T15:05:56;271.55;;;141.20;;
30824;SDS011;17550;45.486;12.222;2023-02-17T15:08:28;251.15;;;138.82;;
30824;SDS011;17550;45.486;12.222;2023-02-17T15:10:56;264.83;;;143.98;;
30824;SDS011;17550;45.486;12.222;2023-02-17T15:13:22;294.00;;;153.23;;
30824;SDS011;17550;45.486;12.222;2023-02-17T15:15:48;286.65;;;152.07;;
30824;SDS011;17550;45.486;12.222;2023-02-17T15:18:15;283.55;;;152.43;;
30824;SDS011;17550;45.486;12.222;2023-02-17T15:20:42;298.48;;;156.60;;
30824;SDS011;17550;45.486;12.222;2023-02-17T15:23:17;299.95;;;155.88;;
30824;SDS011;17550;45.486;12.222;2023-02-17T15:25:47;308.52;;;157.75;;
30824;SDS011;17550;45.486;12.222;2023-02-17T15:28:15;290.00;;;153.60;;
30824;SDS011;17550;45.486;12.222;2023-02-17T15:30:43;282.70;;;150.75;;
30824;SDS011;17550;45.486;12.222;2023-02-17T15:33:13;300.55;;;155.13;;
30824;SDS011;17550;45.486;12.222;2023-02-17T15:35:39;296.98;;;155.13;;
30824;SDS011;17550;45.486;12.222;2023-02-17T15:38:05;305.00;;;160.77;;
30824;SDS011;17550;45.486;12.222;2023-02-17T15:40:33;300.52;;;155.10;;
30824;SDS011;17550;45.486;12.222;2023-02-17T15:43:00;302.15;;;159.23;;
30824;SDS011;17550;45.486;12.222;2023-02-17T15:45:27;295.58;;;158.18;;
30824;SDS011;17550;45.486;12.222;2023-02-17T15:48:03;295.85;;;156.15;;
30824;SDS011;17550;45.486;12.222;2023-02-17T15:50:34;306.40;;;158.93;;
30824;SDS011;17550;45.486;12.222;2023-02-17T15:53:01;302.00;;;160.43;;
30824;SDS011;17550;45.486;12.222;2023-02-17T15:55:27;311.15;;;162.20;;
30824;SDS011;17550;45.486;12.222;2023-02-17T15:57:53;308.90;;;164.68;;